This is the latest recevied weather packets stored in our database for station/object KK7MLS-13. If no packets are shown the sender has not sent any weather packets the latest 10 day(s).
| Time | Temp. | Humidity | Pressure | Rain* | Wind** | Luminosity | Snow |
|---|---|---|---|---|---|---|---|
| 1788628397 | 18.33° C | 71% | 1017.9 hPa | 0 mm | - | 292 W/m² | - |
| 1788628093 | 18.33° C | 71% | 1017.8 hPa | 0 mm | - | 219 W/m² | - |
| 1788627803 | 18.33° C | 73% | 1017.9 hPa | 0 mm | - | 342 W/m² | - |
| 1788627487 | 17.78° C | 73% | 1018 hPa | 0 mm | - | 471 W/m² | - |
| 1788627184 | 17.22° C | 74% | 1018 hPa | 0 mm | - | 424 W/m² | - |
| 1788626883 | 16.67° C | 79% | 1017.9 hPa | 0 mm | - | 364 W/m² | - |
| 1788626578 | 16.11° C | 81% | 1018 hPa | 0 mm | - | 383 W/m² | - |
| 1788626274 | 15.56° C | 82% | 1017.9 hPa | 0 mm | - | 66 W/m² | - |
| 1788625974 | 15.56° C | 83% | 1017.6 hPa | 0 mm | - | 322 W/m² | - |
| 1788625666 | 15.56° C | 81% | 1017.9 hPa | 0 mm | - | 53 W/m² | - |
| 1788625365 | 16.11° C | 81% | 1017.8 hPa | 0 mm | - | 47 W/m² | - |
| 1788625060 | 16.11° C | 81% | 1017.9 hPa | 0 mm | - | 53 W/m² | - |
| 1788624759 | 16.11° C | 83% | 1017.8 hPa | 0 mm | - | 73 W/m² | - |
| 1788624457 | 15° C | 87% | 1017.8 hPa | 0 mm | - | 254 W/m² | - |
| 1788624151 | 15° C | 88% | 1017.8 hPa | 0 mm | - | 179 W/m² | - |
| 1788623847 | 15° C | 88% | 1017.8 hPa | 0 mm | - | 146 W/m² | - |
| 1788623545 | 14.44° C | 89% | 1017.7 hPa | 0 mm | - | 122 W/m² | - |
| 1788623239 | 14.44° C | 91% | 1017.9 hPa | 0 mm | - | 112 W/m² | - |
| 1788622935 | 13.89° C | 92% | 1017.8 hPa | 0 mm | - | 100 W/m² | - |
| 1788622630 | 13.33° C | 94% | 1017.8 hPa | 0 mm | - | 96 W/m² | - |
| 1788622326 | 13.33° C | 95% | 1017.8 hPa | 0 mm | - | 97 W/m² | - |
| 1788622021 | 12.78° C | 96% | 1017.7 hPa | 0 mm | - | 47 W/m² | - |
| 1788621715 | 12.78° C | 96% | 1017.9 hPa | 0 mm | - | 62 W/m² | - |
| 1788621410 | 12.78° C | 95% | 1017.8 hPa | 0 mm | - | 25 W/m² | - |
| 1788621106 | 12.78° C | 95% | 1017.7 hPa | 0 mm | - | 23 W/m² | - |
* Rain latest hour (hover to see other rain measurements)
** Current wind speed in m/s (hover to see current wind gust speed)